sensor_id;sensor_type;location;lat;lon;timestamp;temperature;humidity
7576;DHT22;3829;50.798;4.358;2023-09-12T00:01:16;21.10;99.90
7576;DHT22;3829;50.798;4.358;2023-09-12T00:03:41;21.20;99.90
7576;DHT22;3829;50.798;4.358;2023-09-12T00:06:07;21.20;99.90
7576;DHT22;3829;50.798;4.358;2023-09-12T00:08:33;21.30;99.90
7576;DHT22;3829;50.798;4.358;2023-09-12T00:11:05;21.40;99.90
7576;DHT22;3829;50.798;4.358;2023-09-12T00:13:32;21.50;99.90
7576;DHT22;3829;50.798;4.358;2023-09-12T00:15:58;21.50;99.90
7576;DHT22;3829;50.798;4.358;2023-09-12T00:18:24;21.40;99.90
7576;DHT22;3829;50.798;4.358;2023-09-12T00:20:50;21.30;99.90
7576;DHT22;3829;50.798;4.358;2023-09-12T00:23:16;21.20;99.90
7576;DHT22;3829;50.798;4.358;2023-09-12T00:25:41;21.10;99.90
7576;DHT22;3829;50.798;4.358;2023-09-12T00:28:07;21.10;99.90
7576;DHT22;3829;50.798;4.358;2023-09-12T00:30:33;21.00;99.90
7576;DHT22;3829;50.798;4.358;2023-09-12T00:32:58;21.00;99.90
7576;DHT22;3829;50.798;4.358;2023-09-12T00:35:24;21.00;99.90
7576;DHT22;3829;50.798;4.358;2023-09-12T00:37:49;21.00;99.90
7576;DHT22;3829;50.798;4.358;2023-09-12T00:40:15;21.10;99.90
7576;DHT22;3829;50.798;4.358;2023-09-12T00:42:40;21.00;99.90
7576;DHT22;3829;50.798;4.358;2023-09-12T00:45:06;21.00;99.90
7576;DHT22;3829;50.798;4.358;2023-09-12T00:47:32;20.90;99.90
7576;DHT22;3829;50.798;4.358;2023-09-12T00:49:59;20.70;99.90
7576;DHT22;3829;50.798;4.358;2023-09-12T00:52:26;20.60;99.90
7576;DHT22;3829;50.798;4.358;2023-09-12T00:54:54;20.60;99.90
7576;DHT22;3829;50.798;4.358;2023-09-12T00:57:21;20.60;99.90
7576;DHT22;3829;50.798;4.358;2023-09-12T00:59:48;20.60;99.90
7576;DHT22;3829;50.798;4.358;2023-09-12T01:02:14;20.60;99.90
7576;DHT22;3829;50.798;4.358;2023-09-12T01:04:40;20.60;99.90
7576;DHT22;3829;50.798;4.358;2023-09-12T01:07:06;20.50;99.90
7576;DHT22;3829;50.798;4.358;2023-09-12T01:09:32;20.50;99.90
7576;DHT22;3829;50.798;4.358;2023-09-12T01:11:59;20.50;99.90
7576;DHT22;3829;50.798;4.358;2023-09-12T01:14:28;20.50;99.90
7576;DHT22;3829;50.798;4.358;2023-09-12T01:16:54;20.40;99.90
7576;DHT22;3829;50.798;4.358;2023-09-12T01:19:20;20.40;99.90
7576;DHT22;3829;50.798;4.358;2023-09-12T01:27:47;20.20;99.90
7576;DHT22;3829;50.798;4.358;2023-09-12T01:30:17;20.20;99.90
7576;DHT22;3829;50.798;4.358;2023-09-12T01:32:43;20.10;99.90
7576;DHT22;3829;50.798;4.358;2023-09-12T01:35:09;20.00;99.90
7576;DHT22;3829;50.798;4.358;2023-09-12T01:37:35;20.00;99.90
7576;DHT22;3829;50.798;4.358;2023-09-12T01:40:01;20.00;99.90
7576;DHT22;3829;50.798;4.358;2023-09-12T01:42:31;19.90;99.90
7576;DHT22;3829;50.798;4.358;2023-09-12T01:45:01;19.90;99.90
7576;DHT22;3829;50.798;4.358;2023-09-12T01:47:27;19.90;99.90
7576;DHT22;3829;50.798;4.358;2023-09-12T01:49:56;19.90;99.90
7576;DHT22;3829;50.798;4.358;2023-09-12T01:52:25;19.80;99.90
7576;DHT22;3829;50.798;4.358;2023-09-12T01:54:52;19.80;99.90
7576;DHT22;3829;50.798;4.358;2023-09-12T01:57:18;19.90;99.90
7576;DHT22;3829;50.798;4.358;2023-09-12T01:59:49;19.80;99.90
7576;DHT22;3829;50.798;4.358;2023-09-12T02:02:16;19.80;99.90
7576;DHT22;3829;50.798;4.358;2023-09-12T02:04:45;19.80;99.90
7576;DHT22;3829;50.798;4.358;2023-09-12T02:07:13;19.80;99.90
7576;DHT22;3829;50.798;4.358;2023-09-12T02:09:38;19.70;99.90
7576;DHT22;3829;50.798;4.358;2023-09-12T02:12:04;19.80;99.90
7576;DHT22;3829;50.798;4.358;2023-09-12T02:14:30;19.80;99.90
7576;DHT22;3829;50.798;4.358;2023-09-12T02:16:55;19.80;99.90
7576;DHT22;3829;50.798;4.358;2023-09-12T02:19:21;19.80;99.90
7576;DHT22;3829;50.798;4.358;2023-09-12T02:21:46;19.80;99.90
7576;DHT22;3829;50.798;4.358;2023-09-12T02:24:12;19.80;99.90
7576;DHT22;3829;50.798;4.358;2023-09-12T02:26:37;19.80;99.90
7576;DHT22;3829;50.798;4.358;2023-09-12T02:29:03;19.80;99.90
7576;DHT22;3829;50.798;4.358;2023-09-12T02:31:31;19.90;99.90
7576;DHT22;3829;50.798;4.358;2023-09-12T02:33:56;20.00;99.90
7576;DHT22;3829;50.798;4.358;2023-09-12T02:36:22;20.10;99.90
7576;DHT22;3829;50.798;4.358;2023-09-12T02:38:47;20.20;99.90
7576;DHT22;3829;50.798;4.358;2023-09-12T02:41:13;20.30;99.90
7576;DHT22;3829;50.798;4.358;2023-09-12T02:43:39;20.30;99.90
7576;DHT22;3829;50.798;4.358;2023-09-12T02:46:04;20.40;99.90
7576;DHT22;3829;50.798;4.358;2023-09-12T02:48:30;20.40;99.90
7576;DHT22;3829;50.798;4.358;2023-09-12T02:50:55;20.50;99.90
7576;DHT22;3829;50.798;4.358;2023-09-12T02:53:21;20.50;99.90
7576;DHT22;3829;50.798;4.358;2023-09-12T02:55:46;20.50;99.90
7576;DHT22;3829;50.798;4.358;2023-09-12T02:58:12;20.50;99.90
7576;DHT22;3829;50.798;4.358;2023-09-12T03:00:38;20.60;99.90
7576;DHT22;3829;50.798;4.358;2023-09-12T03:03:05;20.60;99.90
7576;DHT22;3829;50.798;4.358;2023-09-12T03:05:30;20.70;99.90
7576;DHT22;3829;50.798;4.358;2023-09-12T03:07:56;20.80;99.90
7576;DHT22;3829;50.798;4.358;2023-09-12T03:10:21;20.80;99.90
7576;DHT22;3829;50.798;4.358;2023-09-12T03:12:47;20.90;99.90
7576;DHT22;3829;50.798;4.358;2023-09-12T03:15:12;20.90;99.90
7576;DHT22;3829;50.798;4.358;2023-09-12T03:17:38;20.90;99.90
7576;DHT22;3829;50.798;4.358;2023-09-12T03:20:04;20.80;99.90
7576;DHT22;3829;50.798;4.358;2023-09-12T03:22:34;20.80;99.90
7576;DHT22;3829;50.798;4.358;2023-09-12T03:25:03;20.80;99.90
7576;DHT22;3829;50.798;4.358;2023-09-12T03:27:29;20.70;99.90
7576;DHT22;3829;50.798;4.358;2023-09-12T03:29:54;20.70;99.90
7576;DHT22;3829;50.798;4.358;2023-09-12T03:32:20;20.80;99.90
7576;DHT22;3829;50.798;4.358;2023-09-12T03:34:45;20.80;99.90
7576;DHT22;3829;50.798;4.358;2023-09-12T03:37:11;20.80;99.90
7576;DHT22;3829;50.798;4.358;2023-09-12T03:39:37;20.80;99.90
7576;DHT22;3829;50.798;4.358;2023-09-12T03:42:02;20.80;99.90
7576;DHT22;3829;50.798;4.358;2023-09-12T03:44:28;20.70;99.90
7576;DHT22;3829;50.798;4.358;2023-09-12T03:46:53;20.70;99.90
7576;DHT22;3829;50.798;4.358;2023-09-12T03:49:19;20.60;99.90
7576;DHT22;3829;50.798;4.358;2023-09-12T03:51:45;20.40;99.90
7576;DHT22;3829;50.798;4.358;2023-09-12T03:54:10;20.40;99.90
7576;DHT22;3829;50.798;4.358;2023-09-12T03:56:36;20.40;99.90
7576;DHT22;3829;50.798;4.358;2023-09-12T03:59:02;20.40;99.90
7576;DHT22;3829;50.798;4.358;2023-09-12T04:01:28;20.50;99.90
7576;DHT22;3829;50.798;4.358;2023-09-12T04:03:54;20.50;99.90
7576;DHT22;3829;50.798;4.358;2023-09-12T04:06:19;20.50;99.90
7576;DHT22;3829;50.798;4.358;2023-09-12T04:08:45;20.50;99.90
7576;DHT22;3829;50.798;4.358;2023-09-12T04:11:10;20.50;99.90
7576;DHT22;3829;50.798;4.358;2023-09-12T04:13:36;20.50;99.90
7576;DHT22;3829;50.798;4.358;2023-09-12T04:16:02;20.60;99.90
7576;DHT22;3829;50.798;4.358;2023-09-12T04:18:28;20.60;99.90
7576;DHT22;3829;50.798;4.358;2023-09-12T04:20:53;20.60;99.90
7576;DHT22;3829;50.798;4.358;2023-09-12T04:23:21;20.60;99.90
7576;DHT22;3829;50.798;4.358;2023-09-12T04:25:46;20.60;99.90
7576;DHT22;3829;50.798;4.358;2023-09-12T04:28:12;20.70;99.90
7576;DHT22;3829;50.798;4.358;2023-09-12T04:30:38;20.70;99.90
7576;DHT22;3829;50.798;4.358;2023-09-12T04:33:05;20.70;99.90
7576;DHT22;3829;50.798;4.358;2023-09-12T04:35:33;20.60;99.90
7576;DHT22;3829;50.798;4.358;2023-09-12T04:37:59;20.50;99.90
7576;DHT22;3829;50.798;4.358;2023-09-12T04:40:24;20.50;99.90
7576;DHT22;3829;50.798;4.358;2023-09-12T04:42:50;20.40;99.90
7576;DHT22;3829;50.798;4.358;2023-09-12T04:45:15;20.40;99.90
7576;DHT22;3829;50.798;4.358;2023-09-12T04:47:41;20.50;99.90
7576;DHT22;3829;50.798;4.358;2023-09-12T04:50:07;20.50;99.90
7576;DHT22;3829;50.798;4.358;2023-09-12T04:52:32;20.50;99.90
7576;DHT22;3829;50.798;4.358;2023-09-12T04:54:58;20.50;99.90
7576;DHT22;3829;50.798;4.358;2023-09-12T04:57:23;20.50;99.90
7576;DHT22;3829;50.798;4.358;2023-09-12T04:59:51;20.50;99.90
7576;DHT22;3829;50.798;4.358;2023-09-12T05:02:16;20.40;99.90
7576;DHT22;3829;50.798;4.358;2023-09-12T05:04:42;20.30;99.90
7576;DHT22;3829;50.798;4.358;2023-09-12T05:07:07;20.30;99.90
7576;DHT22;3829;50.798;4.358;2023-09-12T05:09:33;20.20;99.90
7576;DHT22;3829;50.798;4.358;2023-09-12T05:11:58;20.10;99.90
7576;DHT22;3829;50.798;4.358;2023-09-12T05:14:24;19.90;99.90
7576;DHT22;3829;50.798;4.358;2023-09-12T05:16:50;19.80;99.90
7576;DHT22;3829;50.798;4.358;2023-09-12T05:19:15;19.80;99.90
7576;DHT22;3829;50.798;4.358;2023-09-12T05:21:41;19.70;99.90
7576;DHT22;3829;50.798;4.358;2023-09-12T05:24:06;19.60;99.90
7576;DHT22;3829;50.798;4.358;2023-09-12T05:26:32;19.60;99.90
7576;DHT22;3829;50.798;4.358;2023-09-12T05:28:58;19.60;99.90
7576;DHT22;3829;50.798;4.358;2023-09-12T05:31:23;19.50;99.90
7576;DHT22;3829;50.798;4.358;2023-09-12T05:33:49;19.50;99.90
7576;DHT22;3829;50.798;4.358;2023-09-12T05:36:14;19.50;99.90
7576;DHT22;3829;50.798;4.358;2023-09-12T05:38:40;19.40;99.90
7576;DHT22;3829;50.798;4.358;2023-09-12T05:41:06;19.40;99.90
7576;DHT22;3829;50.798;4.358;2023-09-12T05:43:31;19.40;99.90
7576;DHT22;3829;50.798;4.358;2023-09-12T05:45:57;19.30;99.90
7576;DHT22;3829;50.798;4.358;2023-09-12T05:48:23;19.30;99.90
7576;DHT22;3829;50.798;4.358;2023-09-12T05:50:49;19.30;99.90
7576;DHT22;3829;50.798;4.358;2023-09-12T05:53:14;19.20;99.90
7576;DHT22;3829;50.798;4.358;2023-09-12T05:55:40;19.20;99.90
7576;DHT22;3829;50.798;4.358;2023-09-12T05:58:06;19.20;99.90
7576;DHT22;3829;50.798;4.358;2023-09-12T06:00:32;19.30;99.90
7576;DHT22;3829;50.798;4.358;2023-09-12T06:02:58;19.30;99.90
7576;DHT22;3829;50.798;4.358;2023-09-12T06:05:24;19.40;99.90
7576;DHT22;3829;50.798;4.358;2023-09-12T06:07:49;19.40;99.90
7576;DHT22;3829;50.798;4.358;2023-09-12T06:10:15;19.50;99.90
7576;DHT22;3829;50.798;4.358;2023-09-12T06:12:41;19.40;99.90
7576;DHT22;3829;50.798;4.358;2023-09-12T06:15:06;19.50;99.90
7576;DHT22;3829;50.798;4.358;2023-09-12T06:17:32;19.50;99.90
7576;DHT22;3829;50.798;4.358;2023-09-12T06:19:58;19.60;99.90
7576;DHT22;3829;50.798;4.358;2023-09-12T06:22:23;19.70;99.90
7576;DHT22;3829;50.798;4.358;2023-09-12T06:24:50;20.00;99.90
7576;DHT22;3829;50.798;4.358;2023-09-12T06:27:16;20.00;99.90
7576;DHT22;3829;50.798;4.358;2023-09-12T06:29:46;20.10;99.90
7576;DHT22;3829;50.798;4.358;2023-09-12T06:32:14;20.20;99.90
7576;DHT22;3829;50.798;4.358;2023-09-12T06:34:39;20.40;99.90
7576;DHT22;3829;50.798;4.358;2023-09-12T06:37:05;20.50;99.90
7576;DHT22;3829;50.798;4.358;2023-09-12T06:39:30;20.60;99.90
7576;DHT22;3829;50.798;4.358;2023-09-12T06:41:56;20.60;99.90
7576;DHT22;3829;50.798;4.358;2023-09-12T06:44:22;20.70;99.90
7576;DHT22;3829;50.798;4.358;2023-09-12T06:46:47;20.80;99.90
7576;DHT22;3829;50.798;4.358;2023-09-12T06:49:13;20.90;99.90
7576;DHT22;3829;50.798;4.358;2023-09-12T06:51:38;21.10;99.90
7576;DHT22;3829;50.798;4.358;2023-09-12T06:54:04;21.30;99.90
7576;DHT22;3829;50.798;4.358;2023-09-12T06:56:30;21.30;99.90
7576;DHT22;3829;50.798;4.358;2023-09-12T06:58:55;21.40;99.90
7576;DHT22;3829;50.798;4.358;2023-09-12T07:01:21;21.50;99.90
7576;DHT22;3829;50.798;4.358;2023-09-12T07:03:47;21.60;99.90
7576;DHT22;3829;50.798;4.358;2023-09-12T07:06:12;21.70;99.90
7576;DHT22;3829;50.798;4.358;2023-09-12T07:08:39;21.90;99.90
7576;DHT22;3829;50.798;4.358;2023-09-12T07:11:05;21.90;99.90
7576;DHT22;3829;50.798;4.358;2023-09-12T07:13:32;21.90;99.90
7576;DHT22;3829;50.798;4.358;2023-09-12T07:15:58;21.90;99.90
7576;DHT22;3829;50.798;4.358;2023-09-12T07:18:24;22.00;99.90
7576;DHT22;3829;50.798;4.358;2023-09-12T07:20:59;22.10;99.90
7576;DHT22;3829;50.798;4.358;2023-09-12T07:23:25;22.10;99.90
7576;DHT22;3829;50.798;4.358;2023-09-12T07:25:51;21.90;99.90
7576;DHT22;3829;50.798;4.358;2023-09-12T07:28:17;21.90;99.90
7576;DHT22;3829;50.798;4.358;2023-09-12T07:30:46;21.80;99.90
7576;DHT22;3829;50.798;4.358;2023-09-12T07:33:12;22.10;99.90
7576;DHT22;3829;50.798;4.358;2023-09-12T07:35:37;22.50;99.90
7576;DHT22;3829;50.798;4.358;2023-09-12T07:38:03;22.50;99.90
7576;DHT22;3829;50.798;4.358;2023-09-12T07:40:29;22.80;99.90
7576;DHT22;3829;50.798;4.358;2023-09-12T07:42:55;23.10;99.90
7576;DHT22;3829;50.798;4.358;2023-09-12T07:45:20;23.30;99.90
7576;DHT22;3829;50.798;4.358;2023-09-12T07:47:46;23.50;99.90
7576;DHT22;3829;50.798;4.358;2023-09-12T07:50:12;23.60;99.90
7576;DHT22;3829;50.798;4.358;2023-09-12T07:52:38;23.70;99.90
7576;DHT22;3829;50.798;4.358;2023-09-12T07:55:03;23.80;99.90
7576;DHT22;3829;50.798;4.358;2023-09-12T07:57:30;23.60;99.90
7576;DHT22;3829;50.798;4.358;2023-09-12T07:59:56;23.80;99.90
7576;DHT22;3829;50.798;4.358;2023-09-12T08:02:22;23.90;99.90
7576;DHT22;3829;50.798;4.358;2023-09-12T08:04:49;23.70;99.90
7576;DHT22;3829;50.798;4.358;2023-09-12T08:07:16;23.80;99.90
7576;DHT22;3829;50.798;4.358;2023-09-12T08:09:58;23.70;99.90
7576;DHT22;3829;50.798;4.358;2023-09-12T08:12:26;23.50;99.90
7576;DHT22;3829;50.798;4.358;2023-09-12T08:14:52;23.40;99.90
7576;DHT22;3829;50.798;4.358;2023-09-12T08:17:18;23.40;99.90
7576;DHT22;3829;50.798;4.358;2023-09-12T08:19:45;23.20;99.90
7576;DHT22;3829;50.798;4.358;2023-09-12T08:22:11;23.10;99.90
7576;DHT22;3829;50.798;4.358;2023-09-12T08:24:38;22.70;99.90
7576;DHT22;3829;50.798;4.358;2023-09-12T08:27:05;22.70;99.90
7576;DHT22;3829;50.798;4.358;2023-09-12T08:29:32;22.50;99.90
7576;DHT22;3829;50.798;4.358;2023-09-12T08:31:58;22.30;99.90
7576;DHT22;3829;50.798;4.358;2023-09-12T08:34:24;22.40;99.90
7576;DHT22;3829;50.798;4.358;2023-09-12T08:36:50;22.30;99.90
7576;DHT22;3829;50.798;4.358;2023-09-12T08:39:24;22.30;99.90
7576;DHT22;3829;50.798;4.358;2023-09-12T08:41:51;22.40;99.90
7576;DHT22;3829;50.798;4.358;2023-09-12T08:44:16;22.50;99.90
7576;DHT22;3829;50.798;4.358;2023-09-12T08:46:42;22.70;99.90
7576;DHT22;3829;50.798;4.358;2023-09-12T08:49:09;22.80;99.90
7576;DHT22;3829;50.798;4.358;2023-09-12T08:51:37;23.00;99.90
7576;DHT22;3829;50.798;4.358;2023-09-12T08:54:03;23.10;99.90
7576;DHT22;3829;50.798;4.358;2023-09-12T08:56:29;23.30;99.90
7576;DHT22;3829;50.798;4.358;2023-09-12T08:58:56;23.40;99.90
7576;DHT22;3829;50.798;4.358;2023-09-12T09:01:23;23.50;99.90
7576;DHT22;3829;50.798;4.358;2023-09-12T09:03:52;23.80;99.90
7576;DHT22;3829;50.798;4.358;2023-09-12T09:06:20;24.00;99.90
7576;DHT22;3829;50.798;4.358;2023-09-12T09:08:48;24.10;99.90
7576;DHT22;3829;50.798;4.358;2023-09-12T09:11:14;24.20;99.90
7576;DHT22;3829;50.798;4.358;2023-09-12T09:13:40;24.60;99.90
7576;DHT22;3829;50.798;4.358;2023-09-12T09:16:16;24.90;99.90
7576;DHT22;3829;50.798;4.358;2023-09-12T09:18:52;25.00;99.90
7576;DHT22;3829;50.798;4.358;2023-09-12T09:21:19;25.20;99.90
7576;DHT22;3829;50.798;4.358;2023-09-12T09:23:45;25.10;99.90
7576;DHT22;3829;50.798;4.358;2023-09-12T09:26:12;25.00;99.90
7576;DHT22;3829;50.798;4.358;2023-09-12T09:28:38;25.20;99.90
7576;DHT22;3829;50.798;4.358;2023-09-12T09:31:10;25.60;99.90
7576;DHT22;3829;50.798;4.358;2023-09-12T09:33:36;25.40;99.90
7576;DHT22;3829;50.798;4.358;2023-09-12T09:36:03;24.90;99.90
7576;DHT22;3829;50.798;4.358;2023-09-12T09:38:30;24.90;99.90
7576;DHT22;3829;50.798;4.358;2023-09-12T09:40:55;24.90;99.90
7576;DHT22;3829;50.798;4.358;2023-09-12T09:43:22;24.90;99.90
7576;DHT22;3829;50.798;4.358;2023-09-12T09:45:47;25.10;99.90
7576;DHT22;3829;50.798;4.358;2023-09-12T09:48:21;25.00;99.90
7576;DHT22;3829;50.798;4.358;2023-09-12T09:50:48;24.90;99.90
7576;DHT22;3829;50.798;4.358;2023-09-12T09:53:14;25.00;99.90
7576;DHT22;3829;50.798;4.358;2023-09-12T09:55:40;25.10;99.90
7576;DHT22;3829;50.798;4.358;2023-09-12T09:58:06;25.00;99.90
7576;DHT22;3829;50.798;4.358;2023-09-12T10:00:34;25.00;99.90
7576;DHT22;3829;50.798;4.358;2023-09-12T10:03:04;24.90;99.90
7576;DHT22;3829;50.798;4.358;2023-09-12T10:05:32;25.10;99.90
7576;DHT22;3829;50.798;4.358;2023-09-12T10:07:59;25.10;99.90
7576;DHT22;3829;50.798;4.358;2023-09-12T10:10:29;25.10;99.90
7576;DHT22;3829;50.798;4.358;2023-09-12T10:12:57;25.20;99.90
7576;DHT22;3829;50.798;4.358;2023-09-12T10:15:27;25.20;99.90
7576;DHT22;3829;50.798;4.358;2023-09-12T10:17:57;25.30;99.90
7576;DHT22;3829;50.798;4.358;2023-09-12T10:20:28;25.30;99.90
7576;DHT22;3829;50.798;4.358;2023-09-12T10:23:08;25.20;99.90
7576;DHT22;3829;50.798;4.358;2023-09-12T10:25:37;25.40;99.90
7576;DHT22;3829;50.798;4.358;2023-09-12T10:28:05;25.50;99.90
7576;DHT22;3829;50.798;4.358;2023-09-12T10:30:32;25.60;99.90
7576;DHT22;3829;50.798;4.358;2023-09-12T10:33:01;25.80;99.90
7576;DHT22;3829;50.798;4.358;2023-09-12T10:35:30;26.20;99.90
7576;DHT22;3829;50.798;4.358;2023-09-12T10:38:00;26.10;99.90
7576;DHT22;3829;50.798;4.358;2023-09-12T10:40:27;26.20;99.90
7576;DHT22;3829;50.798;4.358;2023-09-12T10:42:55;26.20;99.90
7576;DHT22;3829;50.798;4.358;2023-09-12T10:45:22;26.50;99.90
7576;DHT22;3829;50.798;4.358;2023-09-12T10:47:48;26.60;99.90
7576;DHT22;3829;50.798;4.358;2023-09-12T10:50:14;26.60;99.90
7576;DHT22;3829;50.798;4.358;2023-09-12T10:52:39;26.90;99.90
7576;DHT22;3829;50.798;4.358;2023-09-12T10:55:07;27.20;99.90
7576;DHT22;3829;50.798;4.358;2023-09-12T10:57:33;27.60;99.90
7576;DHT22;3829;50.798;4.358;2023-09-12T11:00:10;27.70;99.90
7576;DHT22;3829;50.798;4.358;2023-09-12T11:02:38;27.70;99.90
7576;DHT22;3829;50.798;4.358;2023-09-12T11:05:05;27.80;99.90
7576;DHT22;3829;50.798;4.358;2023-09-12T11:07:47;27.60;99.90
7576;DHT22;3829;50.798;4.358;2023-09-12T11:10:18;27.80;99.90
7576;DHT22;3829;50.798;4.358;2023-09-12T11:12:46;27.80;99.90
7576;DHT22;3829;50.798;4.358;2023-09-12T11:15:13;27.60;99.90
7576;DHT22;3829;50.798;4.358;2023-09-12T11:17:43;27.60;99.90
7576;DHT22;3829;50.798;4.358;2023-09-12T11:20:09;27.20;99.90
7576;DHT22;3829;50.798;4.358;2023-09-12T11:22:37;26.70;99.90
7576;DHT22;3829;50.798;4.358;2023-09-12T11:25:05;26.30;99.90
7576;DHT22;3829;50.798;4.358;2023-09-12T11:30:33;26.20;99.90
7576;DHT22;3829;50.798;4.358;2023-09-12T11:33:03;26.40;99.90
7576;DHT22;3829;50.798;4.358;2023-09-12T11:35:30;26.60;99.90
7576;DHT22;3829;50.798;4.358;2023-09-12T11:38:01;26.70;99.90
7576;DHT22;3829;50.798;4.358;2023-09-12T11:40:44;26.80;99.90
7576;DHT22;3829;50.798;4.358;2023-09-12T11:43:21;26.90;99.90
7576;DHT22;3829;50.798;4.358;2023-09-12T11:45:47;26.80;99.90
7576;DHT22;3829;50.798;4.358;2023-09-12T11:48:13;27.10;99.90
7576;DHT22;3829;50.798;4.358;2023-09-12T11:50:38;27.10;99.90
7576;DHT22;3829;50.798;4.358;2023-09-12T11:53:10;27.40;99.90
7576;DHT22;3829;50.798;4.358;2023-09-12T11:55:46;27.80;99.90
7576;DHT22;3829;50.798;4.358;2023-09-12T11:58:16;28.00;99.90
7576;DHT22;3829;50.798;4.358;2023-09-12T12:00:47;27.90;99.90
7576;DHT22;3829;50.798;4.358;2023-09-12T12:03:14;28.10;99.90
7576;DHT22;3829;50.798;4.358;2023-09-12T12:05:40;28.30;99.90
7576;DHT22;3829;50.798;4.358;2023-09-12T12:08:07;28.30;99.90
7576;DHT22;3829;50.798;4.358;2023-09-12T12:10:34;28.10;99.90
7576;DHT22;3829;50.798;4.358;2023-09-12T12:13:00;27.90;99.90
7576;DHT22;3829;50.798;4.358;2023-09-12T12:15:27;28.10;99.90
7576;DHT22;3829;50.798;4.358;2023-09-12T12:17:55;28.00;99.90
7576;DHT22;3829;50.798;4.358;2023-09-12T12:20:21;28.00;99.90
7576;DHT22;3829;50.798;4.358;2023-09-12T12:22:47;27.80;99.90
7576;DHT22;3829;50.798;4.358;2023-09-12T12:25:14;27.50;99.90
7576;DHT22;3829;50.798;4.358;2023-09-12T12:27:41;27.20;99.90
7576;DHT22;3829;50.798;4.358;2023-09-12T12:30:09;27.30;99.90
7576;DHT22;3829;50.798;4.358;2023-09-12T12:32:41;27.60;99.90
7576;DHT22;3829;50.798;4.358;2023-09-12T12:35:07;27.80;99.90
7576;DHT22;3829;50.798;4.358;2023-09-12T12:37:33;27.60;99.90
7576;DHT22;3829;50.798;4.358;2023-09-12T12:40:00;27.20;99.90
7576;DHT22;3829;50.798;4.358;2023-09-12T12:42:33;27.10;99.90
7576;DHT22;3829;50.798;4.358;2023-09-12T12:44:59;27.10;99.90
7576;DHT22;3829;50.798;4.358;2023-09-12T12:47:25;26.90;99.90
7576;DHT22;3829;50.798;4.358;2023-09-12T12:49:52;26.90;99.90
7576;DHT22;3829;50.798;4.358;2023-09-12T12:52:22;26.80;99.90
7576;DHT22;3829;50.798;4.358;2023-09-12T12:54:49;26.90;99.90
7576;DHT22;3829;50.798;4.358;2023-09-12T12:57:19;26.90;99.90
7576;DHT22;3829;50.798;4.358;2023-09-12T12:59:47;27.20;99.90
7576;DHT22;3829;50.798;4.358;2023-09-12T13:02:13;27.30;99.90
7576;DHT22;3829;50.798;4.358;2023-09-12T13:04:38;27.40;99.90
7576;DHT22;3829;50.798;4.358;2023-09-12T13:07:04;27.30;99.90
7576;DHT22;3829;50.798;4.358;2023-09-12T13:09:30;27.50;99.90
7576;DHT22;3829;50.798;4.358;2023-09-12T13:11:56;27.70;99.90
7576;DHT22;3829;50.798;4.358;2023-09-12T13:14:22;27.60;99.90
7576;DHT22;3829;50.798;4.358;2023-09-12T13:16:55;27.60;99.90
7576;DHT22;3829;50.798;4.358;2023-09-12T13:19:20;27.40;99.90
7576;DHT22;3829;50.798;4.358;2023-09-12T13:21:46;27.30;99.90
7576;DHT22;3829;50.798;4.358;2023-09-12T13:24:11;27.10;99.90
7576;DHT22;3829;50.798;4.358;2023-09-12T13:26:38;27.10;99.90
7576;DHT22;3829;50.798;4.358;2023-09-12T13:29:05;26.80;99.90
7576;DHT22;3829;50.798;4.358;2023-09-12T13:31:31;26.50;99.90
7576;DHT22;3829;50.798;4.358;2023-09-12T13:33:57;26.40;99.90
7576;DHT22;3829;50.798;4.358;2023-09-12T13:36:23;26.40;99.90
7576;DHT22;3829;50.798;4.358;2023-09-12T13:38:49;26.40;99.90
7576;DHT22;3829;50.798;4.358;2023-09-12T13:41:17;26.50;99.90
7576;DHT22;3829;50.798;4.358;2023-09-12T13:43:43;26.50;99.90
7576;DHT22;3829;50.798;4.358;2023-09-12T13:46:10;26.60;99.90
7576;DHT22;3829;50.798;4.358;2023-09-12T13:48:37;26.60;99.90
7576;DHT22;3829;50.798;4.358;2023-09-12T13:51:03;26.70;99.90
7576;DHT22;3829;50.798;4.358;2023-09-12T13:53:28;26.70;99.90
7576;DHT22;3829;50.798;4.358;2023-09-12T13:55:54;26.70;99.90
7576;DHT22;3829;50.798;4.358;2023-09-12T13:58:22;26.60;99.90
7576;DHT22;3829;50.798;4.358;2023-09-12T14:00:48;26.70;99.90
7576;DHT22;3829;50.798;4.358;2023-09-12T14:03:14;26.40;99.90
7576;DHT22;3829;50.798;4.358;2023-09-12T14:05:40;26.30;99.90
7576;DHT22;3829;50.798;4.358;2023-09-12T14:08:06;26.20;99.90
7576;DHT22;3829;50.798;4.358;2023-09-12T14:10:31;26.20;99.90
7576;DHT22;3829;50.798;4.358;2023-09-12T14:12:57;26.20;99.90
7576;DHT22;3829;50.798;4.358;2023-09-12T14:15:22;26.10;99.90
7576;DHT22;3829;50.798;4.358;2023-09-12T14:17:48;25.90;99.90
7576;DHT22;3829;50.798;4.358;2023-09-12T14:20:14;25.70;99.90
7576;DHT22;3829;50.798;4.358;2023-09-12T14:22:41;25.70;99.90
7576;DHT22;3829;50.798;4.358;2023-09-12T14:25:07;25.60;99.90
7576;DHT22;3829;50.798;4.358;2023-09-12T14:27:34;25.70;99.90
7576;DHT22;3829;50.798;4.358;2023-09-12T14:29:59;25.60;99.90
7576;DHT22;3829;50.798;4.358;2023-09-12T14:32:25;25.50;99.90
7576;DHT22;3829;50.798;4.358;2023-09-12T14:34:51;25.50;99.90
7576;DHT22;3829;50.798;4.358;2023-09-12T14:37:17;25.50;99.90
7576;DHT22;3829;50.798;4.358;2023-09-12T14:39:42;25.50;99.90
7576;DHT22;3829;50.798;4.358;2023-09-12T14:42:08;25.50;99.90
7576;DHT22;3829;50.798;4.358;2023-09-12T14:44:35;25.40;99.90
7576;DHT22;3829;50.798;4.358;2023-09-12T14:47:00;25.50;99.90
7576;DHT22;3829;50.798;4.358;2023-09-12T14:49:26;25.50;99.90
7576;DHT22;3829;50.798;4.358;2023-09-12T14:51:51;25.60;99.90
7576;DHT22;3829;50.798;4.358;2023-09-12T14:54:17;25.40;99.90
7576;DHT22;3829;50.798;4.358;2023-09-12T14:56:42;25.40;99.90
7576;DHT22;3829;50.798;4.358;2023-09-12T14:59:08;25.40;99.90
7576;DHT22;3829;50.798;4.358;2023-09-12T15:01:34;25.30;99.90
7576;DHT22;3829;50.798;4.358;2023-09-12T15:04:00;25.10;99.90
7576;DHT22;3829;50.798;4.358;2023-09-12T15:06:27;25.10;99.90
7576;DHT22;3829;50.798;4.358;2023-09-12T15:08:53;25.20;99.90
7576;DHT22;3829;50.798;4.358;2023-09-12T15:11:18;25.10;99.90
7576;DHT22;3829;50.798;4.358;2023-09-12T15:13:44;24.90;99.90
7576;DHT22;3829;50.798;4.358;2023-09-12T15:16:11;24.90;99.90
7576;DHT22;3829;50.798;4.358;2023-09-12T15:18:37;24.80;99.90
7576;DHT22;3829;50.798;4.358;2023-09-12T15:21:06;24.70;99.90
7576;DHT22;3829;50.798;4.358;2023-09-12T15:23:31;24.60;99.90
7576;DHT22;3829;50.798;4.358;2023-09-12T15:25:57;24.70;99.90
7576;DHT22;3829;50.798;4.358;2023-09-12T15:28:23;24.60;99.90
7576;DHT22;3829;50.798;4.358;2023-09-12T15:30:49;24.40;99.90
7576;DHT22;3829;50.798;4.358;2023-09-12T15:33:15;24.40;99.90
7576;DHT22;3829;50.798;4.358;2023-09-12T15:35:41;24.40;99.90
7576;DHT22;3829;50.798;4.358;2023-09-12T15:38:06;24.20;99.90
7576;DHT22;3829;50.798;4.358;2023-09-12T15:40:32;23.90;99.90
7576;DHT22;3829;50.798;4.358;2023-09-12T15:42:58;23.90;99.90
7576;DHT22;3829;50.798;4.358;2023-09-12T15:45:24;23.90;99.90
7576;DHT22;3829;50.798;4.358;2023-09-12T15:47:49;23.90;99.90
7576;DHT22;3829;50.798;4.358;2023-09-12T15:50:15;23.90;99.90
7576;DHT22;3829;50.798;4.358;2023-09-12T15:52:41;23.90;99.90
7576;DHT22;3829;50.798;4.358;2023-09-12T15:55:09;23.80;99.90
7576;DHT22;3829;50.798;4.358;2023-09-12T15:57:35;23.80;99.90
7576;DHT22;3829;50.798;4.358;2023-09-12T16:00:05;23.70;99.90
7576;DHT22;3829;50.798;4.358;2023-09-12T16:02:32;23.70;99.90
7576;DHT22;3829;50.798;4.358;2023-09-12T16:04:59;23.60;99.90
7576;DHT22;3829;50.798;4.358;2023-09-12T16:07:24;23.60;99.90